sensor_id;sensor_type;location;lat;lon;timestamp;P1;durP1;ratioP1;P2;durP2;ratioP2
75928;SDS011;64606;44.062;2.986;2022-12-07T00:01:09;10.38;;;5.43;;
75928;SDS011;64606;44.062;2.986;2022-12-07T00:03:36;11.70;;;6.72;;
75928;SDS011;64606;44.062;2.986;2022-12-07T00:06:03;13.32;;;7.20;;
75928;SDS011;64606;44.062;2.986;2022-12-07T00:08:30;14.80;;;7.97;;
75928;SDS011;64606;44.062;2.986;2022-12-07T00:13:29;16.75;;;7.97;;
75928;SDS011;64606;44.062;2.986;2022-12-07T00:15:55;15.23;;;7.50;;
75928;SDS011;64606;44.062;2.986;2022-12-07T00:18:22;12.68;;;6.68;;
75928;SDS011;64606;44.062;2.986;2022-12-07T00:20:48;16.50;;;7.72;;
75928;SDS011;64606;44.062;2.986;2022-12-07T00:23:14;13.43;;;7.10;;
75928;SDS011;64606;44.062;2.986;2022-12-07T00:25:40;13.32;;;6.82;;
75928;SDS011;64606;44.062;2.986;2022-12-07T00:28:06;15.77;;;8.05;;
75928;SDS011;64606;44.062;2.986;2022-12-07T00:30:34;15.98;;;7.53;;
75928;SDS011;64606;44.062;2.986;2022-12-07T00:33:00;16.27;;;6.68;;
75928;SDS011;64606;44.062;2.986;2022-12-07T00:35:26;23.17;;;10.20;;
75928;SDS011;64606;44.062;2.986;2022-12-07T00:37:53;26.50;;;10.30;;
75928;SDS011;64606;44.062;2.986;2022-12-07T00:40:19;18.80;;;8.18;;
75928;SDS011;64606;44.062;2.986;2022-12-07T00:42:45;12.55;;;6.88;;
75928;SDS011;64606;44.062;2.986;2022-12-07T00:45:11;17.58;;;8.48;;
75928;SDS011;64606;44.062;2.986;2022-12-07T00:47:37;19.70;;;9.27;;
75928;SDS011;64606;44.062;2.986;2022-12-07T00:50:04;23.13;;;10.18;;
75928;SDS011;64606;44.062;2.986;2022-12-07T00:52:30;28.58;;;12.40;;
75928;SDS011;64606;44.062;2.986;2022-12-07T00:54:56;19.95;;;8.50;;
75928;SDS011;64606;44.062;2.986;2022-12-07T00:57:22;14.90;;;7.47;;
75928;SDS011;64606;44.062;2.986;2022-12-07T00:59:48;14.68;;;7.55;;
75928;SDS011;64606;44.062;2.986;2022-12-07T01:02:14;19.05;;;8.95;;
75928;SDS011;64606;44.062;2.986;2022-12-07T01:04:41;21.63;;;8.48;;
75928;SDS011;64606;44.062;2.986;2022-12-07T01:07:07;30.00;;;10.90;;
75928;SDS011;64606;44.062;2.986;2022-12-07T01:09:33;21.00;;;8.90;;
75928;SDS011;64606;44.062;2.986;2022-12-07T01:11:59;19.20;;;8.48;;
75928;SDS011;64606;44.062;2.986;2022-12-07T01:14:25;15.52;;;7.45;;
75928;SDS011;64606;44.062;2.986;2022-12-07T01:16:51;12.73;;;6.38;;
75928;SDS011;64606;44.062;2.986;2022-12-07T01:19:17;29.77;;;11.57;;
75928;SDS011;64606;44.062;2.986;2022-12-07T01:21:44;28.48;;;12.18;;
75928;SDS011;64606;44.062;2.986;2022-12-07T01:24:10;20.77;;;9.00;;
75928;SDS011;64606;44.062;2.986;2022-12-07T01:26:36;17.42;;;9.38;;
75928;SDS011;64606;44.062;2.986;2022-12-07T01:29:03;18.52;;;8.82;;
75928;SDS011;64606;44.062;2.986;2022-12-07T01:31:29;21.63;;;10.10;;
75928;SDS011;64606;44.062;2.986;2022-12-07T01:33:56;20.08;;;9.57;;
75928;SDS011;64606;44.062;2.986;2022-12-07T01:36:23;25.40;;;11.20;;
75928;SDS011;64606;44.062;2.986;2022-12-07T01:38:51;26.20;;;11.20;;
75928;SDS011;64606;44.062;2.986;2022-12-07T01:41:17;19.30;;;8.70;;
75928;SDS011;64606;44.062;2.986;2022-12-07T01:46:28;16.15;;;7.68;;
75928;SDS011;64606;44.062;2.986;2022-12-07T01:48:55;15.80;;;7.93;;
75928;SDS011;64606;44.062;2.986;2022-12-07T01:51:21;19.50;;;8.98;;
75928;SDS011;64606;44.062;2.986;2022-12-07T01:53:47;19.48;;;8.80;;
75928;SDS011;64606;44.062;2.986;2022-12-07T01:56:15;20.35;;;7.43;;
75928;SDS011;64606;44.062;2.986;2022-12-07T01:58:43;14.02;;;6.80;;
75928;SDS011;64606;44.062;2.986;2022-12-07T02:01:09;12.38;;;5.88;;
75928;SDS011;64606;44.062;2.986;2022-12-07T02:03:39;10.90;;;5.85;;
75928;SDS011;64606;44.062;2.986;2022-12-07T02:06:06;9.63;;;5.90;;
75928;SDS011;64606;44.062;2.986;2022-12-07T02:08:33;7.63;;;4.97;;
75928;SDS011;64606;44.062;2.986;2022-12-07T02:11:00;12.55;;;5.57;;
75928;SDS011;64606;44.062;2.986;2022-12-07T02:13:28;21.48;;;9.52;;
75928;SDS011;64606;44.062;2.986;2022-12-07T02:18:32;14.23;;;6.20;;
75928;SDS011;64606;44.062;2.986;2022-12-07T02:21:04;14.27;;;6.80;;
75928;SDS011;64606;44.062;2.986;2022-12-07T02:23:40;16.10;;;8.07;;
75928;SDS011;64606;44.062;2.986;2022-12-07T02:31:20;13.27;;;6.40;;
75928;SDS011;64606;44.062;2.986;2022-12-07T02:33:52;13.50;;;5.85;;
75928;SDS011;64606;44.062;2.986;2022-12-07T02:36:21;9.43;;;5.50;;
75928;SDS011;64606;44.062;2.986;2022-12-07T02:43:59;13.98;;;6.43;;
75928;SDS011;64606;44.062;2.986;2022-12-07T02:47:00;12.85;;;6.35;;
75928;SDS011;64606;44.062;2.986;2022-12-07T02:49:18;12.65;;;6.88;;
75928;SDS011;64606;44.062;2.986;2022-12-07T02:51:45;13.35;;;6.72;;
75928;SDS011;64606;44.062;2.986;2022-12-07T02:54:16;10.43;;;6.50;;
75928;SDS011;64606;44.062;2.986;2022-12-07T02:56:47;12.68;;;5.68;;
75928;SDS011;64606;44.062;2.986;2022-12-07T03:07:02;12.68;;;6.82;;
75928;SDS011;64606;44.062;2.986;2022-12-07T03:09:36;8.43;;;5.68;;
75928;SDS011;64606;44.062;2.986;2022-12-07T03:12:08;12.45;;;6.45;;
75928;SDS011;64606;44.062;2.986;2022-12-07T03:14:38;10.27;;;5.50;;
75928;SDS011;64606;44.062;2.986;2022-12-07T03:17:12;11.20;;;6.53;;
75928;SDS011;64606;44.062;2.986;2022-12-07T03:19:39;12.50;;;7.20;;
75928;SDS011;64606;44.062;2.986;2022-12-07T03:22:07;16.58;;;8.52;;
75928;SDS011;64606;44.062;2.986;2022-12-07T03:24:45;15.25;;;8.25;;
75928;SDS011;64606;44.062;2.986;2022-12-07T03:27:14;16.17;;;8.32;;
75928;SDS011;64606;44.062;2.986;2022-12-07T03:29:43;15.77;;;8.32;;
75928;SDS011;64606;44.062;2.986;2022-12-07T03:32:29;16.13;;;8.75;;
75928;SDS011;64606;44.062;2.986;2022-12-07T03:35:02;15.63;;;8.85;;
75928;SDS011;64606;44.062;2.986;2022-12-07T03:37:31;16.83;;;8.50;;
75928;SDS011;64606;44.062;2.986;2022-12-07T03:40:05;18.08;;;8.43;;
75928;SDS011;64606;44.062;2.986;2022-12-07T03:42:33;19.80;;;8.45;;
75928;SDS011;64606;44.062;2.986;2022-12-07T03:45:00;18.90;;;8.13;;
75928;SDS011;64606;44.062;2.986;2022-12-07T03:47:29;22.98;;;10.38;;
75928;SDS011;64606;44.062;2.986;2022-12-07T03:50:07;24.25;;;9.45;;
75928;SDS011;64606;44.062;2.986;2022-12-07T03:52:45;23.63;;;9.88;;
75928;SDS011;64606;44.062;2.986;2022-12-07T03:57:42;17.25;;;7.65;;
75928;SDS011;64606;44.062;2.986;2022-12-07T04:00:09;16.33;;;8.35;;
75928;SDS011;64606;44.062;2.986;2022-12-07T04:02:36;17.45;;;8.43;;
75928;SDS011;64606;44.062;2.986;2022-12-07T04:05:03;32.35;;;11.15;;
75928;SDS011;64606;44.062;2.986;2022-12-07T04:07:29;24.52;;;10.35;;
75928;SDS011;64606;44.062;2.986;2022-12-07T04:09:56;24.35;;;11.52;;
75928;SDS011;64606;44.062;2.986;2022-12-07T04:12:22;26.88;;;10.52;;
75928;SDS011;64606;44.062;2.986;2022-12-07T04:14:48;23.92;;;9.57;;
75928;SDS011;64606;44.062;2.986;2022-12-07T04:17:14;31.90;;;10.30;;
75928;SDS011;64606;44.062;2.986;2022-12-07T04:19:41;28.23;;;10.20;;
75928;SDS011;64606;44.062;2.986;2022-12-07T04:22:07;33.05;;;10.70;;
75928;SDS011;64606;44.062;2.986;2022-12-07T04:24:33;38.53;;;9.95;;
75928;SDS011;64606;44.062;2.986;2022-12-07T04:27:00;27.63;;;9.15;;
75928;SDS011;64606;44.062;2.986;2022-12-07T04:29:26;50.22;;;10.55;;
75928;SDS011;64606;44.062;2.986;2022-12-07T04:31:52;33.88;;;11.98;;
75928;SDS011;64606;44.062;2.986;2022-12-07T04:34:19;37.85;;;11.23;;
75928;SDS011;64606;44.062;2.986;2022-12-07T04:36:46;20.45;;;9.45;;
75928;SDS011;64606;44.062;2.986;2022-12-07T04:39:23;26.60;;;10.32;;
75928;SDS011;64606;44.062;2.986;2022-12-07T04:41:49;23.70;;;8.88;;
75928;SDS011;64606;44.062;2.986;2022-12-07T04:44:15;28.63;;;9.18;;
75928;SDS011;64606;44.062;2.986;2022-12-07T04:46:42;29.08;;;8.57;;
75928;SDS011;64606;44.062;2.986;2022-12-07T04:49:08;20.67;;;9.50;;
75928;SDS011;64606;44.062;2.986;2022-12-07T04:51:35;30.77;;;9.02;;
75928;SDS011;64606;44.062;2.986;2022-12-07T04:54:01;49.08;;;9.00;;
75928;SDS011;64606;44.062;2.986;2022-12-07T04:56:27;22.55;;;8.43;;
75928;SDS011;64606;44.062;2.986;2022-12-07T04:58:53;48.33;;;9.25;;
75928;SDS011;64606;44.062;2.986;2022-12-07T05:01:20;31.25;;;9.82;;
75928;SDS011;64606;44.062;2.986;2022-12-07T05:03:47;20.58;;;9.38;;
75928;SDS011;64606;44.062;2.986;2022-12-07T05:06:13;68.28;;;9.25;;
75928;SDS011;64606;44.062;2.986;2022-12-07T05:08:40;80.72;;;7.90;;
75928;SDS011;64606;44.062;2.986;2022-12-07T05:11:07;20.45;;;8.27;;
75928;SDS011;64606;44.062;2.986;2022-12-07T05:13:33;45.20;;;9.00;;
75928;SDS011;64606;44.062;2.986;2022-12-07T05:15:59;41.47;;;8.90;;
75928;SDS011;64606;44.062;2.986;2022-12-07T05:18:26;20.00;;;10.13;;
75928;SDS011;64606;44.062;2.986;2022-12-07T05:20:52;68.22;;;9.85;;
75928;SDS011;64606;44.062;2.986;2022-12-07T05:23:18;44.08;;;9.98;;
75928;SDS011;64606;44.062;2.986;2022-12-07T05:25:44;34.42;;;9.32;;
75928;SDS011;64606;44.062;2.986;2022-12-07T05:28:10;25.95;;;10.00;;
75928;SDS011;64606;44.062;2.986;2022-12-07T05:30:37;19.77;;;9.48;;
75928;SDS011;64606;44.062;2.986;2022-12-07T05:33:03;25.48;;;8.98;;
75928;SDS011;64606;44.062;2.986;2022-12-07T05:35:30;35.42;;;9.63;;
75928;SDS011;64606;44.062;2.986;2022-12-07T05:37:56;23.15;;;9.35;;
75928;SDS011;64606;44.062;2.986;2022-12-07T05:40:23;21.42;;;11.10;;
75928;SDS011;64606;44.062;2.986;2022-12-07T05:42:49;27.70;;;10.57;;
75928;SDS011;64606;44.062;2.986;2022-12-07T05:45:15;15.32;;;7.78;;
75928;SDS011;64606;44.062;2.986;2022-12-07T05:47:41;55.20;;;8.45;;
75928;SDS011;64606;44.062;2.986;2022-12-07T05:50:08;25.55;;;8.55;;
75928;SDS011;64606;44.062;2.986;2022-12-07T05:52:34;38.97;;;10.88;;
75928;SDS011;64606;44.062;2.986;2022-12-07T05:55:00;30.20;;;9.30;;
75928;SDS011;64606;44.062;2.986;2022-12-07T05:57:26;28.08;;;9.93;;
75928;SDS011;64606;44.062;2.986;2022-12-07T05:59:52;18.52;;;9.15;;
75928;SDS011;64606;44.062;2.986;2022-12-07T06:02:18;18.58;;;9.50;;
75928;SDS011;64606;44.062;2.986;2022-12-07T06:04:45;24.50;;;8.25;;
75928;SDS011;64606;44.062;2.986;2022-12-07T06:07:12;34.55;;;8.35;;
75928;SDS011;64606;44.062;2.986;2022-12-07T06:09:39;29.60;;;8.32;;
75928;SDS011;64606;44.062;2.986;2022-12-07T06:12:05;23.42;;;8.45;;
75928;SDS011;64606;44.062;2.986;2022-12-07T06:14:50;32.25;;;12.60;;
75928;SDS011;64606;44.062;2.986;2022-12-07T06:17:16;69.63;;;29.83;;
75928;SDS011;64606;44.062;2.986;2022-12-07T06:19:42;76.55;;;31.10;;
75928;SDS011;64606;44.062;2.986;2022-12-07T06:22:09;55.92;;;24.20;;
75928;SDS011;64606;44.062;2.986;2022-12-07T06:24:36;71.72;;;8.52;;
75928;SDS011;64606;44.062;2.986;2022-12-07T06:27:03;47.05;;;12.18;;
75928;SDS011;64606;44.062;2.986;2022-12-07T06:29:29;25.90;;;10.07;;
75928;SDS011;64606;44.062;2.986;2022-12-07T06:31:55;39.78;;;14.88;;
75928;SDS011;64606;44.062;2.986;2022-12-07T06:34:22;58.53;;;22.75;;
75928;SDS011;64606;44.062;2.986;2022-12-07T06:36:48;84.22;;;33.25;;
75928;SDS011;64606;44.062;2.986;2022-12-07T06:39:20;50.83;;;17.65;;
75928;SDS011;64606;44.062;2.986;2022-12-07T06:41:46;82.70;;;9.73;;
75928;SDS011;64606;44.062;2.986;2022-12-07T06:44:13;24.20;;;10.35;;
75928;SDS011;64606;44.062;2.986;2022-12-07T06:46:39;36.40;;;8.73;;
75928;SDS011;64606;44.062;2.986;2022-12-07T06:49:05;56.63;;;8.95;;
75928;SDS011;64606;44.062;2.986;2022-12-07T06:51:32;48.97;;;9.05;;
75928;SDS011;64606;44.062;2.986;2022-12-07T06:54:00;37.67;;;9.85;;
75928;SDS011;64606;44.062;2.986;2022-12-07T06:56:26;42.45;;;9.00;;
75928;SDS011;64606;44.062;2.986;2022-12-07T06:58:53;35.42;;;9.80;;
75928;SDS011;64606;44.062;2.986;2022-12-07T07:01:19;23.67;;;8.25;;
75928;SDS011;64606;44.062;2.986;2022-12-07T07:03:46;33.30;;;16.38;;
75928;SDS011;64606;44.062;2.986;2022-12-07T07:06:13;75.30;;;34.70;;
75928;SDS011;64606;44.062;2.986;2022-12-07T07:08:40;40.00;;;14.73;;
75928;SDS011;64606;44.062;2.986;2022-12-07T07:11:06;30.15;;;11.23;;
75928;SDS011;64606;44.062;2.986;2022-12-07T07:13:33;34.95;;;15.70;;
75928;SDS011;64606;44.062;2.986;2022-12-07T07:15:59;34.85;;;16.23;;
75928;SDS011;64606;44.062;2.986;2022-12-07T07:18:25;38.28;;;9.65;;
75928;SDS011;64606;44.062;2.986;2022-12-07T07:20:52;36.17;;;9.13;;
75928;SDS011;64606;44.062;2.986;2022-12-07T07:23:18;31.02;;;8.10;;
75928;SDS011;64606;44.062;2.986;2022-12-07T07:25:45;34.72;;;8.30;;
75928;SDS011;64606;44.062;2.986;2022-12-07T07:28:11;20.10;;;8.40;;
75928;SDS011;64606;44.062;2.986;2022-12-07T07:30:37;59.55;;;9.63;;
75928;SDS011;64606;44.062;2.986;2022-12-07T07:33:04;23.85;;;8.85;;
75928;SDS011;64606;44.062;2.986;2022-12-07T07:35:31;54.75;;;12.55;;
75928;SDS011;64606;44.062;2.986;2022-12-07T07:37:58;36.25;;;12.48;;
75928;SDS011;64606;44.062;2.986;2022-12-07T07:40:24;33.22;;;15.25;;
75928;SDS011;64606;44.062;2.986;2022-12-07T07:42:51;45.20;;;11.13;;
75928;SDS011;64606;44.062;2.986;2022-12-07T07:45:17;31.27;;;12.13;;
75928;SDS011;64606;44.062;2.986;2022-12-07T07:47:44;67.85;;;24.17;;
75928;SDS011;64606;44.062;2.986;2022-12-07T07:50:10;52.58;;;17.98;;
75928;SDS011;64606;44.062;2.986;2022-12-07T07:52:36;46.00;;;19.08;;
75928;SDS011;64606;44.062;2.986;2022-12-07T07:55:02;62.15;;;15.73;;
75928;SDS011;64606;44.062;2.986;2022-12-07T07:57:29;46.65;;;16.48;;
75928;SDS011;64606;44.062;2.986;2022-12-07T07:59:55;70.88;;;15.63;;
75928;SDS011;64606;44.062;2.986;2022-12-07T08:02:21;56.08;;;16.60;;
75928;SDS011;64606;44.062;2.986;2022-12-07T08:04:48;57.67;;;17.85;;
75928;SDS011;64606;44.062;2.986;2022-12-07T08:07:14;31.90;;;11.60;;
75928;SDS011;64606;44.062;2.986;2022-12-07T08:09:40;34.33;;;9.98;;
75928;SDS011;64606;44.062;2.986;2022-12-07T08:12:07;29.40;;;9.60;;
75928;SDS011;64606;44.062;2.986;2022-12-07T08:14:33;39.38;;;10.48;;
75928;SDS011;64606;44.062;2.986;2022-12-07T08:16:59;19.75;;;10.05;;
75928;SDS011;64606;44.062;2.986;2022-12-07T08:19:26;22.42;;;8.75;;
75928;SDS011;64606;44.062;2.986;2022-12-07T08:21:52;32.08;;;10.18;;
75928;SDS011;64606;44.062;2.986;2022-12-07T08:24:20;38.38;;;9.50;;
75928;SDS011;64606;44.062;2.986;2022-12-07T08:26:46;27.33;;;8.65;;
75928;SDS011;64606;44.062;2.986;2022-12-07T08:29:13;54.80;;;9.25;;
75928;SDS011;64606;44.062;2.986;2022-12-07T08:31:39;22.70;;;8.70;;
75928;SDS011;64606;44.062;2.986;2022-12-07T08:34:05;98.47;;;25.67;;
75928;SDS011;64606;44.062;2.986;2022-12-07T08:36:31;48.42;;;13.63;;
75928;SDS011;64606;44.062;2.986;2022-12-07T08:38:58;31.55;;;13.68;;
75928;SDS011;64606;44.062;2.986;2022-12-07T08:41:24;59.60;;;11.90;;
75928;SDS011;64606;44.062;2.986;2022-12-07T08:43:51;42.63;;;10.93;;
75928;SDS011;64606;44.062;2.986;2022-12-07T08:49:03;44.60;;;9.45;;
75928;SDS011;64606;44.062;2.986;2022-12-07T08:51:30;40.97;;;9.65;;
75928;SDS011;64606;44.062;2.986;2022-12-07T08:53:56;53.55;;;14.38;;
75928;SDS011;64606;44.062;2.986;2022-12-07T08:56:23;32.13;;;12.55;;
75928;SDS011;64606;44.062;2.986;2022-12-07T08:58:50;38.75;;;12.25;;
75928;SDS011;64606;44.062;2.986;2022-12-07T09:01:16;45.28;;;11.00;;
75928;SDS011;64606;44.062;2.986;2022-12-07T09:03:42;39.47;;;11.75;;
75928;SDS011;64606;44.062;2.986;2022-12-07T09:06:09;32.88;;;12.55;;
75928;SDS011;64606;44.062;2.986;2022-12-07T09:08:36;34.03;;;10.68;;
75928;SDS011;64606;44.062;2.986;2022-12-07T09:11:03;33.55;;;9.93;;
75928;SDS011;64606;44.062;2.986;2022-12-07T09:13:29;32.60;;;10.93;;
75928;SDS011;64606;44.062;2.986;2022-12-07T09:15:55;40.50;;;10.65;;
75928;SDS011;64606;44.062;2.986;2022-12-07T09:18:22;57.03;;;11.50;;
75928;SDS011;64606;44.062;2.986;2022-12-07T09:20:49;47.72;;;9.90;;
75928;SDS011;64606;44.062;2.986;2022-12-07T09:23:15;23.90;;;9.30;;
75928;SDS011;64606;44.062;2.986;2022-12-07T09:25:42;18.15;;;8.85;;
75928;SDS011;64606;44.062;2.986;2022-12-07T09:28:08;20.90;;;9.30;;
75928;SDS011;64606;44.062;2.986;2022-12-07T09:30:34;29.38;;;8.15;;
75928;SDS011;64606;44.062;2.986;2022-12-07T09:33:00;27.75;;;8.82;;
75928;SDS011;64606;44.062;2.986;2022-12-07T09:35:27;29.27;;;8.95;;
75928;SDS011;64606;44.062;2.986;2022-12-07T09:37:53;21.38;;;8.68;;
75928;SDS011;64606;44.062;2.986;2022-12-07T09:40:20;32.35;;;9.55;;
75928;SDS011;64606;44.062;2.986;2022-12-07T09:42:52;27.13;;;11.98;;
75928;SDS011;64606;44.062;2.986;2022-12-07T09:45:25;22.02;;;9.65;;
75928;SDS011;64606;44.062;2.986;2022-12-07T09:47:52;21.25;;;10.77;;
75928;SDS011;64606;44.062;2.986;2022-12-07T09:50:23;18.45;;;9.30;;
75928;SDS011;64606;44.062;2.986;2022-12-07T09:52:49;20.05;;;9.40;;
75928;SDS011;64606;44.062;2.986;2022-12-07T09:55:19;20.88;;;10.38;;
75928;SDS011;64606;44.062;2.986;2022-12-07T09:57:47;26.63;;;13.23;;
75928;SDS011;64606;44.062;2.986;2022-12-07T10:00:14;29.27;;;12.50;;
75928;SDS011;64606;44.062;2.986;2022-12-07T10:03:03;25.17;;;12.95;;
75928;SDS011;64606;44.062;2.986;2022-12-07T10:06:01;29.27;;;13.73;;
75928;SDS011;64606;44.062;2.986;2022-12-07T10:08:20;34.30;;;15.05;;
75928;SDS011;64606;44.062;2.986;2022-12-07T10:10:49;31.38;;;15.57;;
75928;SDS011;64606;44.062;2.986;2022-12-07T10:13:20;31.13;;;15.85;;
75928;SDS011;64606;44.062;2.986;2022-12-07T10:15:51;40.60;;;16.75;;
75928;SDS011;64606;44.062;2.986;2022-12-07T10:18:19;31.13;;;14.48;;
75928;SDS011;64606;44.062;2.986;2022-12-07T10:20:46;33.70;;;13.68;;
75928;SDS011;64606;44.062;2.986;2022-12-07T10:23:16;28.52;;;13.63;;
75928;SDS011;64606;44.062;2.986;2022-12-07T10:25:43;22.50;;;12.45;;
75928;SDS011;64606;44.062;2.986;2022-12-07T10:30:55;34.00;;;18.80;;
75928;SDS011;64606;44.062;2.986;2022-12-07T10:35:54;28.38;;;14.05;;
75928;SDS011;64606;44.062;2.986;2022-12-07T10:38:20;22.63;;;12.45;;
75928;SDS011;64606;44.062;2.986;2022-12-07T10:40:46;25.88;;;12.73;;
75928;SDS011;64606;44.062;2.986;2022-12-07T10:53:31;31.65;;;14.50;;
75928;SDS011;64606;44.062;2.986;2022-12-07T11:01:32;58.33;;;27.42;;
75928;SDS011;64606;44.062;2.986;2022-12-07T11:04:03;40.17;;;20.17;;
75928;SDS011;64606;44.062;2.986;2022-12-07T11:06:35;30.40;;;15.90;;
75928;SDS011;64606;44.062;2.986;2022-12-07T11:09:08;24.30;;;13.32;;
75928;SDS011;64606;44.062;2.986;2022-12-07T11:11:44;20.45;;;10.48;;
75928;SDS011;64606;44.062;2.986;2022-12-07T11:14:16;32.20;;;16.13;;
75928;SDS011;64606;44.062;2.986;2022-12-07T11:19:39;25.10;;;12.57;;
75928;SDS011;64606;44.062;2.986;2022-12-07T11:27:17;21.00;;;10.85;;
75928;SDS011;64606;44.062;2.986;2022-12-07T11:30:06;25.40;;;11.27;;
75928;SDS011;64606;44.062;2.986;2022-12-07T11:38:08;18.85;;;9.85;;
75928;SDS011;64606;44.062;2.986;2022-12-07T11:40:36;31.23;;;15.75;;
75928;SDS011;64606;44.062;2.986;2022-12-07T11:45:44;34.72;;;17.88;;
75928;SDS011;64606;44.062;2.986;2022-12-07T11:48:17;27.35;;;12.57;;
75928;SDS011;64606;44.062;2.986;2022-12-07T11:50:53;22.88;;;12.23;;
75928;SDS011;64606;44.062;2.986;2022-12-07T11:53:21;26.08;;;13.57;;
75928;SDS011;64606;44.062;2.986;2022-12-07T12:00:55;18.13;;;9.85;;
75928;SDS011;64606;44.062;2.986;2022-12-07T12:03:30;19.33;;;10.57;;
75928;SDS011;64606;44.062;2.986;2022-12-07T12:05:59;17.10;;;8.43;;
75928;SDS011;64606;44.062;2.986;2022-12-07T12:08:30;13.45;;;7.10;;
75928;SDS011;64606;44.062;2.986;2022-12-07T12:16:09;18.77;;;9.95;;
75928;SDS011;64606;44.062;2.986;2022-12-07T12:18:41;19.73;;;9.15;;
75928;SDS011;64606;44.062;2.986;2022-12-07T12:21:11;20.20;;;8.90;;
75928;SDS011;64606;44.062;2.986;2022-12-07T12:23:42;21.02;;;12.38;;
75928;SDS011;64606;44.062;2.986;2022-12-07T12:26:19;14.73;;;8.95;;
75928;SDS011;64606;44.062;2.986;2022-12-07T12:33:45;19.60;;;8.35;;
75928;SDS011;64606;44.062;2.986;2022-12-07T12:38:49;17.48;;;6.50;;
75928;SDS011;64606;44.062;2.986;2022-12-07T12:44:00;15.02;;;5.25;;
75928;SDS011;64606;44.062;2.986;2022-12-07T12:51:46;14.23;;;6.45;;
75928;SDS011;64606;44.062;2.986;2022-12-07T12:54:20;12.60;;;6.15;;
75928;SDS011;64606;44.062;2.986;2022-12-07T12:59:35;13.35;;;6.53;;
75928;SDS011;64606;44.062;2.986;2022-12-07T13:04:53;9.20;;;5.47;;
75928;SDS011;64606;44.062;2.986;2022-12-07T13:10:09;9.15;;;5.47;;
75928;SDS011;64606;44.062;2.986;2022-12-07T13:15:33;13.27;;;6.80;;
75928;SDS011;64606;44.062;2.986;2022-12-07T13:18:00;13.65;;;7.40;;
75928;SDS011;64606;44.062;2.986;2022-12-07T13:20:46;11.50;;;6.00;;
75928;SDS011;64606;44.062;2.986;2022-12-07T13:23:13;12.68;;;6.65;;
75928;SDS011;64606;44.062;2.986;2022-12-07T13:25:44;12.43;;;6.55;;
75928;SDS011;64606;44.062;2.986;2022-12-07T13:28:18;13.23;;;6.00;;
75928;SDS011;64606;44.062;2.986;2022-12-07T13:30:53;10.80;;;6.65;;
75928;SDS011;64606;44.062;2.986;2022-12-07T13:33:20;9.45;;;5.15;;
75928;SDS011;64606;44.062;2.986;2022-12-07T13:35:46;9.75;;;6.05;;
75928;SDS011;64606;44.062;2.986;2022-12-07T13:38:47;9.35;;;5.10;;
75928;SDS011;64606;44.062;2.986;2022-12-07T13:41:16;9.70;;;5.40;;
75928;SDS011;64606;44.062;2.986;2022-12-07T13:43:43;9.73;;;5.97;;
75928;SDS011;64606;44.062;2.986;2022-12-07T13:46:09;14.60;;;6.88;;
75928;SDS011;64606;44.062;2.986;2022-12-07T13:48:48;19.08;;;9.43;;
75928;SDS011;64606;44.062;2.986;2022-12-07T13:51:18;19.77;;;9.30;;
75928;SDS011;64606;44.062;2.986;2022-12-07T13:53:49;19.80;;;9.38;;
75928;SDS011;64606;44.062;2.986;2022-12-07T13:56:15;15.20;;;8.50;;
75928;SDS011;64606;44.062;2.986;2022-12-07T13:58:42;16.45;;;9.45;;
75928;SDS011;64606;44.062;2.986;2022-12-07T14:01:08;16.17;;;9.07;;
75928;SDS011;64606;44.062;2.986;2022-12-07T14:03:35;15.45;;;7.95;;
75928;SDS011;64606;44.062;2.986;2022-12-07T14:06:06;18.50;;;8.75;;
75928;SDS011;64606;44.062;2.986;2022-12-07T14:08:32;21.08;;;10.45;;
75928;SDS011;64606;44.062;2.986;2022-12-07T14:10:58;20.10;;;10.75;;
75928;SDS011;64606;44.062;2.986;2022-12-07T14:15:51;16.73;;;7.00;;
75928;SDS011;64606;44.062;2.986;2022-12-07T14:18:24;13.70;;;7.13;;
75928;SDS011;64606;44.062;2.986;2022-12-07T14:20:52;14.85;;;7.63;;
75928;SDS011;64606;44.062;2.986;2022-12-07T14:23:27;13.27;;;8.23;;
75928;SDS011;64606;44.062;2.986;2022-12-07T14:25:53;18.77;;;10.82;;
75928;SDS011;64606;44.062;2.986;2022-12-07T14:28:27;19.85;;;10.27;;
75928;SDS011;64606;44.062;2.986;2022-12-07T14:30:53;17.90;;;9.73;;
75928;SDS011;64606;44.062;2.986;2022-12-07T14:33:19;16.25;;;9.20;;
75928;SDS011;64606;44.062;2.986;2022-12-07T14:35:47;15.30;;;8.57;;
75928;SDS011;64606;44.062;2.986;2022-12-07T14:38:14;17.65;;;8.65;;
75928;SDS011;64606;44.062;2.986;2022-12-07T14:40:40;14.90;;;8.57;;
75928;SDS011;64606;44.062;2.986;2022-12-07T14:43:10;15.93;;;8.10;;
75928;SDS011;64606;44.062;2.986;2022-12-07T14:45:38;14.95;;;8.40;;
75928;SDS011;64606;44.062;2.986;2022-12-07T14:48:04;13.43;;;8.00;;
75928;SDS011;64606;44.062;2.986;2022-12-07T14:50:31;13.80;;;7.50;;
75928;SDS011;64606;44.062;2.986;2022-12-07T14:53:01;14.32;;;7.72;;
75928;SDS011;64606;44.062;2.986;2022-12-07T14:55:30;13.27;;;6.90;;
75928;SDS011;64606;44.062;2.986;2022-12-07T14:57:57;11.15;;;6.32;;
75928;SDS011;64606;44.062;2.986;2022-12-07T15:00:25;12.65;;;6.95;;
75928;SDS011;64606;44.062;2.986;2022-12-07T15:02:51;12.10;;;6.47;;
75928;SDS011;64606;44.062;2.986;2022-12-07T15:05:18;10.65;;;5.85;;
75928;SDS011;64606;44.062;2.986;2022-12-07T15:07:45;7.90;;;4.60;;
75928;SDS011;64606;44.062;2.986;2022-12-07T15:10:16;7.50;;;4.88;;
75928;SDS011;64606;44.062;2.986;2022-12-07T15:12:43;5.35;;;3.33;;
75928;SDS011;64606;44.062;2.986;2022-12-07T15:15:10;7.72;;;4.13;;
75928;SDS011;64606;44.062;2.986;2022-12-07T15:17:36;12.07;;;4.80;;
75928;SDS011;64606;44.062;2.986;2022-12-07T15:20:02;5.90;;;4.00;;
75928;SDS011;64606;44.062;2.986;2022-12-07T15:22:29;4.63;;;2.97;;
75928;SDS011;64606;44.062;2.986;2022-12-07T15:24:56;5.10;;;3.58;;
75928;SDS011;64606;44.062;2.986;2022-12-07T15:27:22;11.65;;;3.28;;
75928;SDS011;64606;44.062;2.986;2022-12-07T15:29:48;14.25;;;4.07;;
75928;SDS011;64606;44.062;2.986;2022-12-07T15:32:15;4.88;;;3.20;;
75928;SDS011;64606;44.062;2.986;2022-12-07T15:34:41;10.23;;;4.72;;
75928;SDS011;64606;44.062;2.986;2022-12-07T15:37:07;20.65;;;9.73;;
75928;SDS011;64606;44.062;2.986;2022-12-07T15:39:35;19.08;;;9.30;;
75928;SDS011;64606;44.062;2.986;2022-12-07T15:42:03;11.93;;;6.25;;
75928;SDS011;64606;44.062;2.986;2022-12-07T15:44:29;10.00;;;6.22;;
75928;SDS011;64606;44.062;2.986;2022-12-07T15:47:13;7.70;;;4.70;;
75928;SDS011;64606;44.062;2.986;2022-12-07T15:49:40;9.98;;;5.57;;
75928;SDS011;64606;44.062;2.986;2022-12-07T15:52:06;11.60;;;5.28;;
75928;SDS011;64606;44.062;2.986;2022-12-07T15:54:32;10.90;;;4.72;;
75928;SDS011;64606;44.062;2.986;2022-12-07T15:56:58;6.93;;;3.70;;
75928;SDS011;64606;44.062;2.986;2022-12-07T15:59:25;6.25;;;3.08;;
75928;SDS011;64606;44.062;2.986;2022-12-07T16:01:52;9.02;;;3.95;;
75928;SDS011;64606;44.062;2.986;2022-12-07T16:04:18;10.15;;;3.95;;
75928;SDS011;64606;44.062;2.986;2022-12-07T16:06:44;5.65;;;3.22;;
75928;SDS011;64606;44.062;2.986;2022-12-07T16:09:10;8.75;;;3.85;;
75928;SDS011;64606;44.062;2.986;2022-12-07T16:11:36;8.73;;;4.03;;
75928;SDS011;64606;44.062;2.986;2022-12-07T16:14:03;20.95;;;9.90;;
75928;SDS011;64606;44.062;2.986;2022-12-07T16:16:29;32.65;;;14.52;;
75928;SDS011;64606;44.062;2.986;2022-12-07T16:18:55;38.92;;;21.05;;
75928;SDS011;64606;44.062;2.986;2022-12-07T16:21:22;41.13;;;21.15;;
75928;SDS011;64606;44.062;2.986;2022-12-07T16:23:48;41.60;;;19.25;;